sensor_id;sensor_type;location;lat;lon;timestamp;P1;durP1;ratioP1;P2;durP2;ratioP2
75935;SDS011;64614;32.062;34.834;2023-06-26T00:00:34;5.15;;;2.97;;
75935;SDS011;64614;32.062;34.834;2023-06-26T00:02:59;5.30;;;2.85;;
75935;SDS011;64614;32.062;34.834;2023-06-26T00:05:25;5.75;;;2.92;;
75935;SDS011;64614;32.062;34.834;2023-06-26T00:07:53;4.88;;;3.00;;
75935;SDS011;64614;32.062;34.834;2023-06-26T00:10:18;5.55;;;3.03;;
75935;SDS011;64614;32.062;34.834;2023-06-26T00:12:44;5.82;;;3.20;;
75935;SDS011;64614;32.062;34.834;2023-06-26T00:15:09;5.28;;;3.20;;
75935;SDS011;64614;32.062;34.834;2023-06-26T00:17:35;8.40;;;3.22;;
75935;SDS011;64614;32.062;34.834;2023-06-26T00:20:02;6.20;;;3.35;;
75935;SDS011;64614;32.062;34.834;2023-06-26T00:22:30;7.00;;;3.53;;
75935;SDS011;64614;32.062;34.834;2023-06-26T00:24:55;6.00;;;3.60;;
75935;SDS011;64614;32.062;34.834;2023-06-26T00:27:21;5.95;;;3.80;;
75935;SDS011;64614;32.062;34.834;2023-06-26T00:29:47;8.02;;;3.70;;
75935;SDS011;64614;32.062;34.834;2023-06-26T00:32:12;7.03;;;3.97;;
75935;SDS011;64614;32.062;34.834;2023-06-26T00:34:38;7.10;;;4.07;;
75935;SDS011;64614;32.062;34.834;2023-06-26T00:37:04;7.28;;;4.10;;
75935;SDS011;64614;32.062;34.834;2023-06-26T00:39:29;6.85;;;3.85;;
75935;SDS011;64614;32.062;34.834;2023-06-26T00:41:55;8.75;;;4.18;;
75935;SDS011;64614;32.062;34.834;2023-06-26T00:44:21;6.20;;;3.90;;
75935;SDS011;64614;32.062;34.834;2023-06-26T00:46:47;7.20;;;4.00;;
75935;SDS011;64614;32.062;34.834;2023-06-26T00:49:13;6.78;;;4.00;;
75935;SDS011;64614;32.062;34.834;2023-06-26T00:51:39;7.40;;;4.20;;
75935;SDS011;64614;32.062;34.834;2023-06-26T00:54:05;6.80;;;4.07;;
75935;SDS011;64614;32.062;34.834;2023-06-26T00:56:31;7.43;;;4.07;;
75935;SDS011;64614;32.062;34.834;2023-06-26T00:58:57;7.32;;;4.10;;
75935;SDS011;64614;32.062;34.834;2023-06-26T01:01:22;7.65;;;4.53;;
75935;SDS011;64614;32.062;34.834;2023-06-26T01:03:51;6.90;;;4.07;;
75935;SDS011;64614;32.062;34.834;2023-06-26T01:06:18;7.38;;;4.47;;
75935;SDS011;64614;32.062;34.834;2023-06-26T01:11:12;6.95;;;4.50;;
75935;SDS011;64614;32.062;34.834;2023-06-26T01:13:40;7.45;;;4.60;;
75935;SDS011;64614;32.062;34.834;2023-06-26T01:16:07;6.80;;;4.53;;
75935;SDS011;64614;32.062;34.834;2023-06-26T01:18:34;8.77;;;4.50;;
75935;SDS011;64614;32.062;34.834;2023-06-26T01:21:02;8.25;;;4.47;;
75935;SDS011;64614;32.062;34.834;2023-06-26T01:28:37;6.65;;;4.15;;
75935;SDS011;64614;32.062;34.834;2023-06-26T01:31:06;7.78;;;4.38;;
75935;SDS011;64614;32.062;34.834;2023-06-26T01:33:33;6.97;;;4.45;;
75935;SDS011;64614;32.062;34.834;2023-06-26T01:36:00;7.88;;;4.60;;
75935;SDS011;64614;32.062;34.834;2023-06-26T01:38:26;7.53;;;4.30;;
75935;SDS011;64614;32.062;34.834;2023-06-26T01:40:52;7.05;;;4.25;;
75935;SDS011;64614;32.062;34.834;2023-06-26T01:48:23;7.65;;;4.15;;
75935;SDS011;64614;32.062;34.834;2023-06-26T01:50:53;7.32;;;4.28;;
75935;SDS011;64614;32.062;34.834;2023-06-26T01:53:24;7.55;;;4.22;;
75935;SDS011;64614;32.062;34.834;2023-06-26T01:55:55;7.32;;;4.05;;
75935;SDS011;64614;32.062;34.834;2023-06-26T01:58:31;8.65;;;4.57;;
75935;SDS011;64614;32.062;34.834;2023-06-26T02:00:59;8.52;;;4.72;;
75935;SDS011;64614;32.062;34.834;2023-06-26T02:03:25;8.00;;;4.50;;
75935;SDS011;64614;32.062;34.834;2023-06-26T02:05:51;8.98;;;4.43;;
75935;SDS011;64614;32.062;34.834;2023-06-26T02:08:17;8.43;;;4.93;;
75935;SDS011;64614;32.062;34.834;2023-06-26T02:10:42;7.97;;;4.80;;
75935;SDS011;64614;32.062;34.834;2023-06-26T02:13:08;7.78;;;4.78;;
75935;SDS011;64614;32.062;34.834;2023-06-26T02:15:34;8.05;;;4.95;;
75935;SDS011;64614;32.062;34.834;2023-06-26T02:17:59;7.43;;;4.60;;
75935;SDS011;64614;32.062;34.834;2023-06-26T02:20:25;6.82;;;4.20;;
75935;SDS011;64614;32.062;34.834;2023-06-26T02:22:51;6.35;;;3.78;;
75935;SDS011;64614;32.062;34.834;2023-06-26T02:25:17;6.65;;;4.00;;
75935;SDS011;64614;32.062;34.834;2023-06-26T02:27:43;5.95;;;3.58;;
75935;SDS011;64614;32.062;34.834;2023-06-26T02:30:09;6.80;;;3.97;;
75935;SDS011;64614;32.062;34.834;2023-06-26T02:32:35;5.25;;;3.35;;
75935;SDS011;64614;32.062;34.834;2023-06-26T02:35:01;10.57;;;3.65;;
75935;SDS011;64614;32.062;34.834;2023-06-26T02:37:26;5.93;;;3.30;;
75935;SDS011;64614;32.062;34.834;2023-06-26T02:39:52;6.65;;;3.70;;
75935;SDS011;64614;32.062;34.834;2023-06-26T02:42:20;6.25;;;3.72;;
75935;SDS011;64614;32.062;34.834;2023-06-26T02:44:45;6.22;;;3.65;;
75935;SDS011;64614;32.062;34.834;2023-06-26T02:47:11;5.85;;;3.40;;
75935;SDS011;64614;32.062;34.834;2023-06-26T02:49:36;5.45;;;3.30;;
75935;SDS011;64614;32.062;34.834;2023-06-26T02:52:02;6.85;;;4.00;;
75935;SDS011;64614;32.062;34.834;2023-06-26T02:54:28;6.30;;;3.25;;
75935;SDS011;64614;32.062;34.834;2023-06-26T02:56:54;5.40;;;3.17;;
75935;SDS011;64614;32.062;34.834;2023-06-26T02:59:19;6.00;;;3.30;;
75935;SDS011;64614;32.062;34.834;2023-06-26T03:01:45;6.28;;;3.70;;
75935;SDS011;64614;32.062;34.834;2023-06-26T03:04:11;5.03;;;3.35;;
75935;SDS011;64614;32.062;34.834;2023-06-26T03:06:36;6.40;;;3.15;;
75935;SDS011;64614;32.062;34.834;2023-06-26T03:09:02;5.20;;;3.30;;
75935;SDS011;64614;32.062;34.834;2023-06-26T03:11:28;6.00;;;3.38;;
75935;SDS011;64614;32.062;34.834;2023-06-26T03:13:53;7.95;;;3.70;;
75935;SDS011;64614;32.062;34.834;2023-06-26T03:16:19;6.82;;;3.22;;
75935;SDS011;64614;32.062;34.834;2023-06-26T03:18:45;8.43;;;3.40;;
75935;SDS011;64614;32.062;34.834;2023-06-26T03:21:10;6.88;;;3.45;;
75935;SDS011;64614;32.062;34.834;2023-06-26T03:23:36;8.15;;;4.75;;
75935;SDS011;64614;32.062;34.834;2023-06-26T03:26:02;7.22;;;4.90;;
75935;SDS011;64614;32.062;34.834;2023-06-26T03:28:27;10.23;;;6.28;;
75935;SDS011;64614;32.062;34.834;2023-06-26T03:30:53;10.93;;;6.90;;
75935;SDS011;64614;32.062;34.834;2023-06-26T03:33:22;12.88;;;7.60;;
75935;SDS011;64614;32.062;34.834;2023-06-26T03:35:47;12.27;;;7.75;;
75935;SDS011;64614;32.062;34.834;2023-06-26T03:38:13;11.57;;;7.75;;
75935;SDS011;64614;32.062;34.834;2023-06-26T03:40:39;13.85;;;8.48;;
75935;SDS011;64614;32.062;34.834;2023-06-26T03:43:04;13.27;;;7.85;;
75935;SDS011;64614;32.062;34.834;2023-06-26T03:45:30;13.23;;;7.78;;
75935;SDS011;64614;32.062;34.834;2023-06-26T03:47:55;13.15;;;8.00;;
75935;SDS011;64614;32.062;34.834;2023-06-26T03:50:21;11.32;;;7.32;;
75935;SDS011;64614;32.062;34.834;2023-06-26T03:52:47;12.73;;;7.70;;
75935;SDS011;64614;32.062;34.834;2023-06-26T03:55:12;12.63;;;6.97;;
75935;SDS011;64614;32.062;34.834;2023-06-26T03:57:38;13.70;;;7.43;;
75935;SDS011;64614;32.062;34.834;2023-06-26T04:00:04;12.23;;;7.78;;
75935;SDS011;64614;32.062;34.834;2023-06-26T04:02:33;12.60;;;7.55;;
75935;SDS011;64614;32.062;34.834;2023-06-26T04:05:00;11.65;;;7.32;;
75935;SDS011;64614;32.062;34.834;2023-06-26T04:07:26;10.52;;;7.30;;
75935;SDS011;64614;32.062;34.834;2023-06-26T04:09:51;12.35;;;7.65;;
75935;SDS011;64614;32.062;34.834;2023-06-26T04:12:17;14.70;;;8.55;;
75935;SDS011;64614;32.062;34.834;2023-06-26T04:14:43;12.35;;;7.20;;
75935;SDS011;64614;32.062;34.834;2023-06-26T04:17:09;13.70;;;7.53;;
75935;SDS011;64614;32.062;34.834;2023-06-26T04:19:35;14.45;;;8.00;;
75935;SDS011;64614;32.062;34.834;2023-06-26T04:22:01;11.70;;;7.57;;
75935;SDS011;64614;32.062;34.834;2023-06-26T04:24:27;13.50;;;7.45;;
75935;SDS011;64614;32.062;34.834;2023-06-26T04:26:53;10.60;;;6.18;;
75935;SDS011;64614;32.062;34.834;2023-06-26T04:31:50;12.88;;;7.55;;
75935;SDS011;64614;32.062;34.834;2023-06-26T04:34:16;11.35;;;7.28;;
75935;SDS011;64614;32.062;34.834;2023-06-26T04:36:42;10.77;;;7.10;;
75935;SDS011;64614;32.062;34.834;2023-06-26T04:39:11;11.10;;;7.00;;
75935;SDS011;64614;32.062;34.834;2023-06-26T04:41:37;10.93;;;7.38;;
75935;SDS011;64614;32.062;34.834;2023-06-26T04:44:03;10.88;;;6.53;;
75935;SDS011;64614;32.062;34.834;2023-06-26T04:46:28;10.00;;;7.03;;
75935;SDS011;64614;32.062;34.834;2023-06-26T04:48:54;10.70;;;7.22;;
75935;SDS011;64614;32.062;34.834;2023-06-26T04:51:23;11.15;;;7.13;;
75935;SDS011;64614;32.062;34.834;2023-06-26T04:53:49;10.13;;;6.90;;
75935;SDS011;64614;32.062;34.834;2023-06-26T04:56:15;9.57;;;6.63;;
75935;SDS011;64614;32.062;34.834;2023-06-26T04:58:41;10.18;;;6.45;;
75935;SDS011;64614;32.062;34.834;2023-06-26T05:01:06;9.05;;;6.03;;
75935;SDS011;64614;32.062;34.834;2023-06-26T05:03:32;9.18;;;6.22;;
75935;SDS011;64614;32.062;34.834;2023-06-26T05:05:58;9.40;;;5.88;;
75935;SDS011;64614;32.062;34.834;2023-06-26T05:08:24;9.55;;;5.75;;
75935;SDS011;64614;32.062;34.834;2023-06-26T05:10:53;8.60;;;5.68;;
75935;SDS011;64614;32.062;34.834;2023-06-26T05:13:22;8.77;;;5.60;;
75935;SDS011;64614;32.062;34.834;2023-06-26T05:15:49;9.30;;;6.00;;
75935;SDS011;64614;32.062;34.834;2023-06-26T05:18:15;9.18;;;5.50;;
75935;SDS011;64614;32.062;34.834;2023-06-26T05:20:41;8.73;;;5.20;;
75935;SDS011;64614;32.062;34.834;2023-06-26T05:23:07;8.43;;;5.88;;
75935;SDS011;64614;32.062;34.834;2023-06-26T05:25:33;9.52;;;5.72;;
75935;SDS011;64614;32.062;34.834;2023-06-26T05:28:01;8.90;;;5.78;;
75935;SDS011;64614;32.062;34.834;2023-06-26T05:30:30;8.77;;;5.80;;
75935;SDS011;64614;32.062;34.834;2023-06-26T05:32:56;7.75;;;5.55;;
75935;SDS011;64614;32.062;34.834;2023-06-26T05:37:53;10.23;;;6.15;;
75935;SDS011;64614;32.062;34.834;2023-06-26T05:40:20;9.27;;;5.70;;
75935;SDS011;64614;32.062;34.834;2023-06-26T05:42:46;9.82;;;5.97;;
75935;SDS011;64614;32.062;34.834;2023-06-26T05:45:12;9.52;;;5.80;;
75935;SDS011;64614;32.062;34.834;2023-06-26T05:47:38;7.88;;;5.10;;
75935;SDS011;64614;32.062;34.834;2023-06-26T05:50:03;8.30;;;5.70;;
75935;SDS011;64614;32.062;34.834;2023-06-26T05:52:30;10.00;;;6.38;;
75935;SDS011;64614;32.062;34.834;2023-06-26T05:54:56;9.23;;;6.40;;
75935;SDS011;64614;32.062;34.834;2023-06-26T05:57:25;9.63;;;6.60;;
75935;SDS011;64614;32.062;34.834;2023-06-26T05:59:52;9.48;;;6.50;;
75935;SDS011;64614;32.062;34.834;2023-06-26T06:02:18;9.30;;;6.63;;
75935;SDS011;64614;32.062;34.834;2023-06-26T06:04:44;9.30;;;6.13;;
75935;SDS011;64614;32.062;34.834;2023-06-26T06:07:11;9.63;;;6.80;;
75935;SDS011;64614;32.062;34.834;2023-06-26T06:09:37;9.25;;;6.97;;
75935;SDS011;64614;32.062;34.834;2023-06-26T06:12:04;12.90;;;7.65;;
75935;SDS011;64614;32.062;34.834;2023-06-26T06:14:31;10.88;;;7.15;;
75935;SDS011;64614;32.062;34.834;2023-06-26T06:17:00;9.80;;;6.80;;
75935;SDS011;64614;32.062;34.834;2023-06-26T06:19:26;11.82;;;7.55;;
75935;SDS011;64614;32.062;34.834;2023-06-26T06:21:52;11.52;;;7.28;;
75935;SDS011;64614;32.062;34.834;2023-06-26T06:24:18;10.65;;;7.18;;
75935;SDS011;64614;32.062;34.834;2023-06-26T06:26:43;9.38;;;6.68;;
75935;SDS011;64614;32.062;34.834;2023-06-26T06:29:09;9.57;;;6.45;;
75935;SDS011;64614;32.062;34.834;2023-06-26T06:31:35;9.98;;;6.60;;
75935;SDS011;64614;32.062;34.834;2023-06-26T06:34:01;9.60;;;6.45;;
75935;SDS011;64614;32.062;34.834;2023-06-26T06:36:26;8.77;;;6.28;;
75935;SDS011;64614;32.062;34.834;2023-06-26T06:38:52;10.60;;;6.60;;
75935;SDS011;64614;32.062;34.834;2023-06-26T06:41:19;8.48;;;6.18;;
75935;SDS011;64614;32.062;34.834;2023-06-26T06:43:45;9.57;;;6.22;;
75935;SDS011;64614;32.062;34.834;2023-06-26T06:46:11;8.50;;;6.20;;
75935;SDS011;64614;32.062;34.834;2023-06-26T06:48:37;8.55;;;5.78;;
75935;SDS011;64614;32.062;34.834;2023-06-26T06:51:02;8.88;;;6.03;;
75935;SDS011;64614;32.062;34.834;2023-06-26T06:53:28;8.15;;;5.60;;
75935;SDS011;64614;32.062;34.834;2023-06-26T06:55:54;8.63;;;6.05;;
75935;SDS011;64614;32.062;34.834;2023-06-26T06:58:20;9.25;;;5.90;;
75935;SDS011;64614;32.062;34.834;2023-06-26T07:00:45;9.25;;;6.55;;
75935;SDS011;64614;32.062;34.834;2023-06-26T07:03:11;8.98;;;5.95;;
75935;SDS011;64614;32.062;34.834;2023-06-26T07:05:37;8.25;;;5.78;;
75935;SDS011;64614;32.062;34.834;2023-06-26T07:08:03;7.82;;;5.60;;
75935;SDS011;64614;32.062;34.834;2023-06-26T07:10:29;7.75;;;5.47;;
75935;SDS011;64614;32.062;34.834;2023-06-26T07:12:55;7.40;;;5.60;;
75935;SDS011;64614;32.062;34.834;2023-06-26T07:15:20;8.48;;;5.70;;
75935;SDS011;64614;32.062;34.834;2023-06-26T07:17:46;8.52;;;5.45;;
75935;SDS011;64614;32.062;34.834;2023-06-26T07:20:12;7.75;;;5.57;;
75935;SDS011;64614;32.062;34.834;2023-06-26T07:22:40;7.88;;;5.55;;
75935;SDS011;64614;32.062;34.834;2023-06-26T07:25:07;8.63;;;5.63;;
75935;SDS011;64614;32.062;34.834;2023-06-26T07:27:40;8.07;;;5.60;;
75935;SDS011;64614;32.062;34.834;2023-06-26T07:30:06;7.25;;;5.25;;
75935;SDS011;64614;32.062;34.834;2023-06-26T07:32:36;8.98;;;6.00;;
75935;SDS011;64614;32.062;34.834;2023-06-26T07:35:02;8.15;;;5.53;;
75935;SDS011;64614;32.062;34.834;2023-06-26T07:37:28;8.23;;;5.72;;
75935;SDS011;64614;32.062;34.834;2023-06-26T07:39:54;8.35;;;5.80;;
75935;SDS011;64614;32.062;34.834;2023-06-26T07:42:19;8.50;;;5.30;;
75935;SDS011;64614;32.062;34.834;2023-06-26T07:44:45;8.27;;;5.80;;
75935;SDS011;64614;32.062;34.834;2023-06-26T07:47:11;7.97;;;5.65;;
75935;SDS011;64614;32.062;34.834;2023-06-26T07:49:39;8.00;;;5.65;;
75935;SDS011;64614;32.062;34.834;2023-06-26T07:54:31;7.90;;;5.38;;
75935;SDS011;64614;32.062;34.834;2023-06-26T07:57:00;7.85;;;5.30;;
75935;SDS011;64614;32.062;34.834;2023-06-26T07:59:27;7.80;;;5.30;;
75935;SDS011;64614;32.062;34.834;2023-06-26T08:01:55;8.00;;;5.18;;
75935;SDS011;64614;32.062;34.834;2023-06-26T08:04:25;7.15;;;5.05;;
75935;SDS011;64614;32.062;34.834;2023-06-26T08:06:52;7.03;;;4.85;;
75935;SDS011;64614;32.062;34.834;2023-06-26T08:09:19;7.80;;;5.18;;
75935;SDS011;64614;32.062;34.834;2023-06-26T08:11:46;6.72;;;5.07;;
75935;SDS011;64614;32.062;34.834;2023-06-26T08:14:12;7.82;;;5.13;;
75935;SDS011;64614;32.062;34.834;2023-06-26T08:16:38;7.95;;;5.07;;
75935;SDS011;64614;32.062;34.834;2023-06-26T08:19:04;7.25;;;5.00;;
75935;SDS011;64614;32.062;34.834;2023-06-26T08:21:30;6.72;;;4.63;;
75935;SDS011;64614;32.062;34.834;2023-06-26T08:23:56;7.30;;;4.97;;
75935;SDS011;64614;32.062;34.834;2023-06-26T08:26:21;6.75;;;4.80;;
75935;SDS011;64614;32.062;34.834;2023-06-26T08:28:47;7.13;;;5.00;;
75935;SDS011;64614;32.062;34.834;2023-06-26T08:31:13;6.95;;;5.10;;
75935;SDS011;64614;32.062;34.834;2023-06-26T08:33:38;7.05;;;4.68;;
75935;SDS011;64614;32.062;34.834;2023-06-26T08:36:04;7.10;;;4.55;;
75935;SDS011;64614;32.062;34.834;2023-06-26T08:38:30;7.45;;;5.20;;
75935;SDS011;64614;32.062;34.834;2023-06-26T08:40:55;6.72;;;5.05;;
75935;SDS011;64614;32.062;34.834;2023-06-26T08:43:21;6.90;;;4.70;;
75935;SDS011;64614;32.062;34.834;2023-06-26T08:45:47;6.72;;;4.80;;
75935;SDS011;64614;32.062;34.834;2023-06-26T08:48:16;6.82;;;4.63;;
75935;SDS011;64614;32.062;34.834;2023-06-26T08:50:43;7.45;;;4.70;;
75935;SDS011;64614;32.062;34.834;2023-06-26T08:55:43;7.10;;;4.70;;
75935;SDS011;64614;32.062;34.834;2023-06-26T08:58:10;7.40;;;4.82;;
75935;SDS011;64614;32.062;34.834;2023-06-26T09:00:37;6.72;;;4.68;;
75935;SDS011;64614;32.062;34.834;2023-06-26T09:03:04;6.22;;;4.40;;
75935;SDS011;64614;32.062;34.834;2023-06-26T09:05:30;7.43;;;4.93;;
75935;SDS011;64614;32.062;34.834;2023-06-26T09:07:59;7.55;;;4.75;;
75935;SDS011;64614;32.062;34.834;2023-06-26T09:10:24;7.43;;;4.60;;
75935;SDS011;64614;32.062;34.834;2023-06-26T09:12:50;7.40;;;4.75;;
75935;SDS011;64614;32.062;34.834;2023-06-26T09:15:20;6.38;;;4.47;;
75935;SDS011;64614;32.062;34.834;2023-06-26T09:17:45;8.02;;;4.80;;
75935;SDS011;64614;32.062;34.834;2023-06-26T09:20:13;7.80;;;5.28;;
75935;SDS011;64614;32.062;34.834;2023-06-26T09:22:43;10.38;;;6.10;;
75935;SDS011;64614;32.062;34.834;2023-06-26T09:25:13;11.13;;;5.75;;
75935;SDS011;64614;32.062;34.834;2023-06-26T09:27:39;9.07;;;5.45;;
75935;SDS011;64614;32.062;34.834;2023-06-26T09:30:08;9.32;;;5.63;;
75935;SDS011;64614;32.062;34.834;2023-06-26T09:32:37;8.32;;;5.18;;
75935;SDS011;64614;32.062;34.834;2023-06-26T09:35:03;7.75;;;5.45;;
75935;SDS011;64614;32.062;34.834;2023-06-26T09:37:29;9.45;;;5.47;;
75935;SDS011;64614;32.062;34.834;2023-06-26T09:39:55;7.53;;;4.68;;
75935;SDS011;64614;32.062;34.834;2023-06-26T09:42:21;7.55;;;4.82;;
75935;SDS011;64614;32.062;34.834;2023-06-26T09:44:47;7.65;;;4.40;;
75935;SDS011;64614;32.062;34.834;2023-06-26T09:47:16;7.65;;;4.55;;
75935;SDS011;64614;32.062;34.834;2023-06-26T09:49:44;7.72;;;4.78;;
75935;SDS011;64614;32.062;34.834;2023-06-26T09:52:13;7.72;;;4.85;;
75935;SDS011;64614;32.062;34.834;2023-06-26T09:54:41;6.80;;;4.40;;
75935;SDS011;64614;32.062;34.834;2023-06-26T09:57:11;6.90;;;4.28;;
75935;SDS011;64614;32.062;34.834;2023-06-26T09:59:38;7.30;;;4.70;;
75935;SDS011;64614;32.062;34.834;2023-06-26T10:02:05;7.15;;;4.43;;
75935;SDS011;64614;32.062;34.834;2023-06-26T10:04:32;6.78;;;4.25;;
75935;SDS011;64614;32.062;34.834;2023-06-26T10:06:58;5.95;;;3.83;;
75935;SDS011;64614;32.062;34.834;2023-06-26T10:09:27;6.40;;;4.20;;
75935;SDS011;64614;32.062;34.834;2023-06-26T10:11:59;6.10;;;3.67;;
75935;SDS011;64614;32.062;34.834;2023-06-26T10:14:31;6.32;;;3.85;;
75935;SDS011;64614;32.062;34.834;2023-06-26T10:17:01;5.85;;;3.90;;
75935;SDS011;64614;32.062;34.834;2023-06-26T10:19:29;6.32;;;3.80;;
75935;SDS011;64614;32.062;34.834;2023-06-26T10:21:57;5.32;;;3.50;;
75935;SDS011;64614;32.062;34.834;2023-06-26T10:24:24;6.00;;;3.42;;
75935;SDS011;64614;32.062;34.834;2023-06-26T10:26:56;4.90;;;3.45;;
75935;SDS011;64614;32.062;34.834;2023-06-26T10:39:25;5.25;;;3.25;;
75935;SDS011;64614;32.062;34.834;2023-06-26T10:41:54;6.65;;;3.70;;
75935;SDS011;64614;32.062;34.834;2023-06-26T10:44:21;5.63;;;3.80;;
75935;SDS011;64614;32.062;34.834;2023-06-26T10:46:54;5.93;;;3.50;;
75935;SDS011;64614;32.062;34.834;2023-06-26T10:49:25;4.90;;;2.90;;
75935;SDS011;64614;32.062;34.834;2023-06-26T10:51:53;5.05;;;2.92;;
75935;SDS011;64614;32.062;34.834;2023-06-26T10:54:21;6.68;;;3.42;;
75935;SDS011;64614;32.062;34.834;2023-06-26T10:56:47;5.00;;;3.13;;
75935;SDS011;64614;32.062;34.834;2023-06-26T10:59:15;5.57;;;3.33;;
75935;SDS011;64614;32.062;34.834;2023-06-26T11:01:45;5.00;;;3.08;;
75935;SDS011;64614;32.062;34.834;2023-06-26T11:04:19;4.35;;;2.88;;
75935;SDS011;64614;32.062;34.834;2023-06-26T11:10:25;4.53;;;3.13;;
75935;SDS011;64614;32.062;34.834;2023-06-26T11:12:41;4.97;;;3.15;;
75935;SDS011;64614;32.062;34.834;2023-06-26T11:15:09;4.72;;;3.08;;
75935;SDS011;64614;32.062;34.834;2023-06-26T11:17:39;4.25;;;2.70;;
75935;SDS011;64614;32.062;34.834;2023-06-26T11:20:06;4.63;;;2.90;;
75935;SDS011;64614;32.062;34.834;2023-06-26T11:22:34;3.67;;;2.60;;
75935;SDS011;64614;32.062;34.834;2023-06-26T11:25:03;4.05;;;2.50;;
75935;SDS011;64614;32.062;34.834;2023-06-26T11:30:08;4.90;;;2.75;;
75935;SDS011;64614;32.062;34.834;2023-06-26T11:32:39;4.55;;;2.75;;
75935;SDS011;64614;32.062;34.834;2023-06-26T11:35:05;4.45;;;2.53;;
75935;SDS011;64614;32.062;34.834;2023-06-26T11:37:31;4.50;;;2.70;;
75935;SDS011;64614;32.062;34.834;2023-06-26T11:39:58;4.60;;;2.72;;
75935;SDS011;64614;32.062;34.834;2023-06-26T11:42:23;4.47;;;2.60;;
75935;SDS011;64614;32.062;34.834;2023-06-26T11:44:52;4.78;;;2.72;;
75935;SDS011;64614;32.062;34.834;2023-06-26T11:47:19;4.70;;;2.80;;
75935;SDS011;64614;32.062;34.834;2023-06-26T11:49:46;4.43;;;2.75;;
75935;SDS011;64614;32.062;34.834;2023-06-26T11:52:13;3.72;;;2.50;;
75935;SDS011;64614;32.062;34.834;2023-06-26T11:54:40;4.35;;;2.90;;
75935;SDS011;64614;32.062;34.834;2023-06-26T11:57:07;4.05;;;2.80;;
75935;SDS011;64614;32.062;34.834;2023-06-26T11:59:33;3.33;;;2.40;;
75935;SDS011;64614;32.062;34.834;2023-06-26T12:02:09;3.92;;;2.50;;
75935;SDS011;64614;32.062;34.834;2023-06-26T12:04:37;3.88;;;2.45;;
75935;SDS011;64614;32.062;34.834;2023-06-26T12:07:08;4.20;;;2.67;;
75935;SDS011;64614;32.062;34.834;2023-06-26T12:09:42;3.85;;;2.47;;
75935;SDS011;64614;32.062;34.834;2023-06-26T12:12:10;3.65;;;2.33;;
75935;SDS011;64614;32.062;34.834;2023-06-26T12:14:37;4.25;;;2.53;;
75935;SDS011;64614;32.062;34.834;2023-06-26T12:17:09;3.72;;;2.50;;
75935;SDS011;64614;32.062;34.834;2023-06-26T12:19:37;3.95;;;2.45;;
75935;SDS011;64614;32.062;34.834;2023-06-26T12:22:07;3.47;;;2.55;;
75935;SDS011;64614;32.062;34.834;2023-06-26T12:24:33;2.85;;;2.00;;
75935;SDS011;64614;32.062;34.834;2023-06-26T12:27:00;3.80;;;2.40;;
75935;SDS011;64614;32.062;34.834;2023-06-26T12:29:32;3.75;;;2.35;;
75935;SDS011;64614;32.062;34.834;2023-06-26T12:31:59;4.32;;;2.78;;
75935;SDS011;64614;32.062;34.834;2023-06-26T12:34:30;3.88;;;2.60;;
75935;SDS011;64614;32.062;34.834;2023-06-26T12:37:02;3.70;;;2.25;;
75935;SDS011;64614;32.062;34.834;2023-06-26T12:39:47;4.03;;;2.38;;
75935;SDS011;64614;32.062;34.834;2023-06-26T12:42:26;3.72;;;2.25;;
75935;SDS011;64614;32.062;34.834;2023-06-26T12:44:54;3.60;;;2.40;;
75935;SDS011;64614;32.062;34.834;2023-06-26T12:47:24;3.45;;;2.40;;
75935;SDS011;64614;32.062;34.834;2023-06-26T12:49:54;3.67;;;2.45;;
75935;SDS011;64614;32.062;34.834;2023-06-26T12:57:53;4.28;;;2.53;;
75935;SDS011;64614;32.062;34.834;2023-06-26T13:00:19;4.15;;;2.67;;
75935;SDS011;64614;32.062;34.834;2023-06-26T13:02:45;3.60;;;2.63;;
75935;SDS011;64614;32.062;34.834;2023-06-26T13:05:10;3.72;;;2.60;;
75935;SDS011;64614;32.062;34.834;2023-06-26T13:07:36;4.50;;;2.90;;
75935;SDS011;64614;32.062;34.834;2023-06-26T13:10:01;5.40;;;3.10;;
75935;SDS011;64614;32.062;34.834;2023-06-26T13:12:29;5.40;;;3.42;;
75935;SDS011;64614;32.062;34.834;2023-06-26T13:14:55;6.20;;;3.30;;
75935;SDS011;64614;32.062;34.834;2023-06-26T13:17:20;5.57;;;3.50;;
75935;SDS011;64614;32.062;34.834;2023-06-26T13:19:46;4.85;;;3.40;;
75935;SDS011;64614;32.062;34.834;2023-06-26T13:22:11;6.25;;;3.90;;
75935;SDS011;64614;32.062;34.834;2023-06-26T13:24:37;6.03;;;3.72;;
75935;SDS011;64614;32.062;34.834;2023-06-26T13:27:03;5.68;;;3.72;;
75935;SDS011;64614;32.062;34.834;2023-06-26T13:29:29;5.70;;;3.78;;
75935;SDS011;64614;32.062;34.834;2023-06-26T13:31:54;5.43;;;3.50;;
75935;SDS011;64614;32.062;34.834;2023-06-26T13:34:21;5.22;;;3.55;;
75935;SDS011;64614;32.062;34.834;2023-06-26T13:36:48;5.20;;;3.67;;
75935;SDS011;64614;32.062;34.834;2023-06-26T13:39:14;5.82;;;3.60;;
75935;SDS011;64614;32.062;34.834;2023-06-26T13:41:39;5.50;;;3.60;;
75935;SDS011;64614;32.062;34.834;2023-06-26T13:44:05;5.95;;;3.47;;
75935;SDS011;64614;32.062;34.834;2023-06-26T13:46:30;6.72;;;4.30;;
75935;SDS011;64614;32.062;34.834;2023-06-26T13:48:56;5.93;;;3.70;;
75935;SDS011;64614;32.062;34.834;2023-06-26T13:51:22;6.57;;;4.15;;
75935;SDS011;64614;32.062;34.834;2023-06-26T13:53:47;5.22;;;3.70;;
75935;SDS011;64614;32.062;34.834;2023-06-26T13:56:13;6.25;;;3.78;;
75935;SDS011;64614;32.062;34.834;2023-06-26T13:58:38;6.22;;;3.97;;
75935;SDS011;64614;32.062;34.834;2023-06-26T14:01:04;7.90;;;4.75;;
75935;SDS011;64614;32.062;34.834;2023-06-26T14:03:30;7.70;;;4.65;;
75935;SDS011;64614;32.062;34.834;2023-06-26T14:05:59;7.07;;;4.45;;
75935;SDS011;64614;32.062;34.834;2023-06-26T14:08:26;6.28;;;4.38;;
75935;SDS011;64614;32.062;34.834;2023-06-26T14:10:51;7.03;;;4.72;;
75935;SDS011;64614;32.062;34.834;2023-06-26T14:13:17;6.05;;;4.15;;
75935;SDS011;64614;32.062;34.834;2023-06-26T14:15:44;7.15;;;4.40;;
75935;SDS011;64614;32.062;34.834;2023-06-26T14:18:09;6.97;;;4.45;;
75935;SDS011;64614;32.062;34.834;2023-06-26T14:20:35;6.32;;;3.97;;
75935;SDS011;64614;32.062;34.834;2023-06-26T14:23:02;6.68;;;4.30;;
75935;SDS011;64614;32.062;34.834;2023-06-26T14:25:28;6.55;;;4.70;;
75935;SDS011;64614;32.062;34.834;2023-06-26T14:27:54;6.43;;;4.35;;
75935;SDS011;64614;32.062;34.834;2023-06-26T14:30:21;6.78;;;4.57;;
75935;SDS011;64614;32.062;34.834;2023-06-26T14:32:47;5.75;;;4.00;;
75935;SDS011;64614;32.062;34.834;2023-06-26T14:35:12;7.22;;;4.22;;
75935;SDS011;64614;32.062;34.834;2023-06-26T14:37:38;6.28;;;4.38;;
75935;SDS011;64614;32.062;34.834;2023-06-26T14:40:05;6.72;;;4.50;;
75935;SDS011;64614;32.062;34.834;2023-06-26T14:42:32;7.53;;;4.65;;
75935;SDS011;64614;32.062;34.834;2023-06-26T14:44:58;6.50;;;4.10;;
75935;SDS011;64614;32.062;34.834;2023-06-26T14:47:24;6.43;;;4.20;;
75935;SDS011;64614;32.062;34.834;2023-06-26T14:49:50;6.93;;;4.47;;
75935;SDS011;64614;32.062;34.834;2023-06-26T14:52:15;6.70;;;4.72;;
75935;SDS011;64614;32.062;34.834;2023-06-26T14:54:41;6.65;;;4.50;;
75935;SDS011;64614;32.062;34.834;2023-06-26T14:57:07;7.03;;;4.40;;
75935;SDS011;64614;32.062;34.834;2023-06-26T14:59:32;8.48;;;4.32;;
75935;SDS011;64614;32.062;34.834;2023-06-26T15:01:58;7.60;;;4.88;;
75935;SDS011;64614;32.062;34.834;2023-06-26T15:04:24;6.88;;;4.53;;
75935;SDS011;64614;32.062;34.834;2023-06-26T15:06:49;7.32;;;4.97;;
75935;SDS011;64614;32.062;34.834;2023-06-26T15:09:15;6.80;;;4.32;;
75935;SDS011;64614;32.062;34.834;2023-06-26T15:11:41;8.20;;;5.25;;
75935;SDS011;64614;32.062;34.834;2023-06-26T15:14:07;7.53;;;4.63;;